Time;durP1;ratioP1;P1;durP2;ratioP2;P2;SDS_P1;SDS_P2;PMS_P1;PMS_P2;Temp;Humidity;BMP_temperature;BMP_pressure;BME280_temperature;BME280_humidity;BME280_pressure;Samples;Min_cycle;Max_cycle;Signal;HPM_P1;HPM_P2
2021/12/08 00:02:01;;;;;;;;;;;;;;;;;;2214247;59;23209;-70
2021/12/08 00:04:34;;;;;;;;;;;;;;;;;;2213858;63;18108;-70
2021/12/08 00:07:08;;;;;;;;;;;;;;;;;;2213458;59;39407;-70
2021/12/08 00:10:02;;;;;;;;;;;;;;;;;;2214344;66;32188;-70
2021/12/08 00:15:33;;;;;;;;;;;;;;;;;;2207278;63;23977;-70
2021/12/08 00:18:07;;;;;;;;;;;;;;;;;;2214226;59;31214;-71
2021/12/08 00:20:42;;;;;;;;;;;;;;;;;;2214287;59;16533;-70
2021/12/08 00:23:15;;;;;;;;;;;;;;;;;;2212426;59;40409;-70
2021/12/08 00:25:51;;;;;;;;;;;;;;;;;;2213190;66;51927;-70
2021/12/08 00:28:25;;;;;;;;;;;;;;;;;;2214338;59;21158;-70
2021/12/08 00:30:59;;;;;;;;;;;;;;;;;;2213296;59;14083;-70
2021/12/08 00:33:32;;;;;;;;;;;;;;;;;;2212845;59;19242;-70
2021/12/08 00:36:09;;;;;;;;;;;;;;;;;;2213540;67;23496;-70
2021/12/08 00:38:43;;;;;;;;;;;;;;;;;;2211546;67;24118;-70
2021/12/08 00:41:19;;;;;;;;;;;;;;;;;;2213152;59;30489;-70
2021/12/08 00:43:52;;;;;;;;;;;;;;;;;;2214124;66;21277;-70
2021/12/08 00:46:25;;;;;;;;;;;;;;;;;;2213845;59;19928;-70
2021/12/08 00:48:58;;;;;;;;;;;;;;;;;;2213280;58;32844;-70
2021/12/08 00:51:32;;;;;;;;;;;;;;;;;;2212766;59;21868;-70
2021/12/08 00:54:05;;;;;;;;;;;;;;;;;;2214051;59;24228;-70
2021/12/08 00:56:41;;;;;;;;;;;;;;;;;;2212128;67;33850;-70
2021/12/08 00:59:14;;;;;;;;;;;;;;;;;;2212431;63;31801;-70
2021/12/08 01:01:47;;;;;;;;;;;;;;;;;;2213296;59;24332;-70
2021/12/08 01:04:20;;;;;;;;;;;;;;;;;;2212930;67;24661;-70
2021/12/08 01:06:53;;;;;;;;;;;;;;;;;;2213743;67;17755;-70
2021/12/08 01:09:27;;;;;;;;;;;;;;;;;;2212937;58;24082;-71
2021/12/08 01:12:04;;;;;;;;;;;;;;;;;;2214008;59;27764;-70
2021/12/08 01:14:37;;;;;;;;;;;;;;;;;;2213032;59;17733;-70
2021/12/08 01:17:10;;;;;;;;;;;;;;;;;;2213761;64;24070;-70
2021/12/08 01:19:44;;;;;;;;;;;;;;;;;;2215153;59;20363;-70
2021/12/08 01:22:17;;;;;;;;;;;;;;;;;;2213732;59;15535;-70
2021/12/08 01:24:50;;;;;;;;;;;;;;;;;;2214234;67;13885;-71
2021/12/08 01:27:26;;;;;;;;;;;;;;;;;;2213507;59;27643;-70
2021/12/08 01:29:59;;;;;;;;;;;;;;;;;;2215281;59;26574;-70
2021/12/08 01:32:32;;;;;;;;;;;;;;;;;;2213953;66;35827;-70
2021/12/08 01:35:07;;;;;;;;;;;;;;;;;;2212988;67;22769;-70
2021/12/08 01:37:40;;;;;;;;;;;;;;;;;;2213879;67;20408;-70
2021/12/08 01:40:15;;;;;;;;;;;;;;;;;;2214796;58;16091;-70
2021/12/08 01:42:56;;;;;;;;;;;;;;;;;;2214841;66;19937;-70
2021/12/08 01:48:21;;;;;;;;;;;;;;;;;;2214223;59;16307;-70
2021/12/08 01:50:56;;;;;;;;;;;;;;;;;;2214548;59;18668;-70
2021/12/08 01:53:31;;;;;;;;;;;;;;;;;;2214430;59;18037;-70
2021/12/08 01:56:05;;;;;;;;;;;;;;;;;;2214743;67;19989;-70
2021/12/08 01:58:41;;;;;;;;;;;;;;;;;;2214409;59;18606;-70
2021/12/08 02:01:15;;;;;;;;;;;;;;;;;;2213607;67;27155;-70
2021/12/08 02:03:48;;;;;;;;;;;;;;;;;;2214878;59;19573;-70
2021/12/08 02:06:22;;;;;;;;;;;;;;;;;;2213730;66;30315;-70
2021/12/08 02:08:56;;;;;;;;;;;;;;;;;;2214421;59;23285;-70
2021/12/08 02:11:29;;;;;;;;;;;;;;;;;;2213739;59;16238;-70
2021/12/08 02:14:05;;;;;;;;;;;;;;;;;;2212853;59;23435;-71
2021/12/08 02:16:38;;;;;;;;;;;;;;;;;;2214090;67;30263;-71
2021/12/08 02:19:11;;;;;;;;;;;;;;;;;;2212953;59;38292;-70
2021/12/08 02:21:52;;;;;;;;;;;;;;;;;;2214330;58;20137;-70
2021/12/08 02:24:25;;;;;;;;;;;;;;;;;;2213550;59;44793;-70
2021/12/08 02:26:58;;;;;;;;;;;;;;;;;;2214145;59;17271;-70
2021/12/08 02:29:40;;;;;;;;;;;;;;;;;;2213089;59;17233;-70
2021/12/08 02:32:31;;;;;;;;;;;;;;;;;;2214162;59;27659;-70
2021/12/08 02:46:48;;;;;;;;;;;;;;;;;;2214404;59;18868;-70
2021/12/08 02:49:23;;;;;;;;;;;;;;;;;;2213968;53;26992;-71
2021/12/08 02:52:06;;;;;;;;;;;;;;;;;;2205018;59;49679;-71
2021/12/08 02:54:44;;;;;;;;;;;;;;;;;;2205903;59;76552;-70
2021/12/08 03:00:26;;;;;;;;;;;;;;;;;;2176106;67;2088043;-71
2021/12/08 03:03:01;;;;;;;;;;;;;;;;;;2175070;59;2174225;-70
2021/12/08 03:08:55;;;;;;;;;;;;;;;;;;2207313;59;27695;-71
2021/12/08 03:15:22;;;;;;;;;;;;;;;;;;1751955;59;30936279;-71
2021/12/08 03:21:11;;;;;;;;;;;;;;;;;;2176818;59;1815591;-71
2021/12/08 03:24:29;;;;;;;;;;;;;;;;;;1611111;59;51209563;-71
2021/12/08 03:27:11;;;;;;;;;;;;;;;;;;2196305;67;1289;-71
2021/12/08 03:30:11;;;;;;;;;;;;;;;;;;2202819;59;234260;-71
2021/12/08 03:36:16;;;;;;;;;;;;;;;;;;2203330;59;157485;-71
2021/12/08 03:39:19;;;;;;;;;;;;;;;;;;2114630;59;6101070;-70
2021/12/08 03:45:33;;;;;;;;;;;;;;;;;;;;;
2021/12/08 03:48:15;;;;;;;;;;;;;;;;;;2207642;59;24172;-70
2021/12/08 03:50:49;;;;;;;;;;;;;;;;;;2207023;59;19504;-70
2021/12/08 03:53:22;;;;;;;;;;;;;;;;;;2206376;67;33409;-70
2021/12/08 03:56:02;;;;;;;;;;;;;;;;;;2207187;67;20276;-70
2021/12/08 03:58:36;;;;;;;;;;;;;;;;;;2207140;67;20813;-69
2021/12/08 04:08:34;;;;;;;;;;;;;;;;;;1753801;59;30466178;-70
2021/12/08 04:15:07;;;;;;;;;;;;;;;;;;2204395;59;212471;-70
2021/12/08 04:21:12;;;;;;;;;;;;;;;;;;1899253;63;20780948;-70
2021/12/08 04:34:34;;;;;;;;;;;;;;;;;;2202507;59;17914;-70
2021/12/08 04:37:21;;;;;;;;;;;;;;;;;;2083760;63;7485360;-73
2021/12/08 04:40:08;;;;;;;;;;;;;;;;;;2138538;67;4722202;-70
2021/12/08 04:45:52;;;;;;;;;;;;;;;;;;1893999;67;21068256;-70
2021/12/08 04:52:04;;;;;;;;;;;;;;;;;;1849899;67;23519330;-70
2021/12/08 05:04:24;;;;;;;;;;;;;;;;;;2204909;63;65513;-69
2021/12/08 05:16:49;;;;;;;;;;;;;;;;;;1425815;59;52731844;-70
2021/12/08 05:23:40;;;;;;;;;;;;;;;;;;2204658;59;22034;-69
2021/12/08 05:26:24;;;;;;;;;;;;;;;;;;1889139;59;21173344;-69
2021/12/08 05:33:54;;;;;;;;;;;;;;;;;;2205171;59;25466;-68
2021/12/08 06:03:33;;;;;;;;;;;;;;;;;;2200902;59;1413;-68
2021/12/08 06:06:39;;;;;;;;;;;;;;;;;;1439376;63;52084448;-68
2021/12/08 06:17:02;;;;;;;;;;;;;;;;;;2206787;67;21783;-68
2021/12/08 06:19:57;;;;;;;;;;;;;;;;;;1218289;59;52546195;-68
2021/12/08 06:25:35;;;;;;;;;;;;;;;;;;1995445;67;14222750;-68
2021/12/08 06:42:35;;;;;;;;;;;;;;;;;;1433225;60;51797338;-68
2021/12/08 06:45:34;;;;;;;;;;;;;;;;;;1755954;59;30654994;-68
2021/12/08 06:51:59;;;;;;;;;;;;;;;;;;1434208;59;51848394;-68
2021/12/08 06:54:58;;;;;;;;;;;;;;;;;;2204739;59;156127;-68
2021/12/08 06:57:54;;;;;;;;;;;;;;;;;;;;;
2021/12/08 07:01:21;;;;;;;;;;;;;;;;;;2205016;59;49674;-68
2021/12/08 07:07:09;;;;;;;;;;;;;;;;;;2205178;67;33009;-68
2021/12/08 07:13:14;;;;;;;;;;;;;;;;;;2205660;59;174896;-69
2021/12/08 07:15:51;;;;;;;;;;;;;;;;;;2205930;59;260703;-69
2021/12/08 07:18:29;;;;;;;;;;;;;;;;;;2181720;59;1839050;-68
2021/12/08 07:21:04;;;;;;;;;;;;;;;;;;2208277;59;23950;-68
2021/12/08 07:23:40;;;;;;;;;;;;;;;;;;1715591;59;30593795;-68
2021/12/08 07:26:33;;;;;;;;;;;;;;;;;;2208193;67;17757;-68
2021/12/08 07:29:11;;;;;;;;;;;;;;;;;;2208015;59;18883;-68
2021/12/08 07:31:48;;;;;;;;;;;;;;;;;;2120622;59;5911420;-68
2021/12/08 07:34:22;;;;;;;;;;;;;;;;;;2208810;59;37209;-69
2021/12/08 07:37:01;;;;;;;;;;;;;;;;;;2209036;67;27031;-69
2021/12/08 07:39:42;;;;;;;;;;;;;;;;;;2113980;67;6184632;-69
2021/12/08 07:45:23;;;;;;;;;;;;;;;;;;2203326;59;211253;-68
2021/12/08 07:48:11;;;;;;;;;;;;;;;;;;2207690;67;16154;-68
2021/12/08 07:50:54;;;;;;;;;;;;;;;;;;2205497;67;33905;-68
2021/12/08 07:53:36;;;;;;;;;;;;;;;;;;1871423;59;30770302;-69
2021/12/08 07:56:12;;;;;;;;;;;;;;;;;;2207280;67;15544;-68
2021/12/08 07:58:55;;;;;;;;;;;;;;;;;;2206184;67;88660;-68
2021/12/08 08:01:34;;;;;;;;;;;;;;;;;;2203546;59;217955;-69
2021/12/08 08:04:09;;;;;;;;;;;;;;;;;;2205968;63;110508;-68
2021/12/08 08:06:44;;;;;;;;;;;;;;;;;;2205496;67;133950;-68
2021/12/08 08:09:20;;;;;;;;;;;;;;;;;;2206426;63;24341;-68
2021/12/08 08:11:57;;;;;;;;;;;;;;;;;;2207239;67;19596;-68
2021/12/08 08:14:34;;;;;;;;;;;;;;;;;;2205888;67;48501;-68
2021/12/08 08:17:13;;;;;;;;;;;;;;;;;;2206150;67;29809;-68
2021/12/08 08:19:47;;;;;;;;;;;;;;;;;;2204851;59;112099;-68
2021/12/08 08:22:23;;;;;;;;;;;;;;;;;;2207289;59;27448;-68
2021/12/08 08:24:57;;;;;;;;;;;;;;;;;;2206299;67;47402;-69
2021/12/08 08:27:31;;;;;;;;;;;;;;;;;;2205675;64;74474;-68
2021/12/08 08:30:08;;;;;;;;;;;;;;;;;;2203200;59;224525;-68
2021/12/08 08:32:47;;;;;;;;;;;;;;;;;;2205691;59;17758;-68
2021/12/08 08:35:23;;;;;;;;;;;;;;;;;;2204315;67;103057;-68
2021/12/08 08:38:00;;;;;;;;;;;;;;;;;;2207378;59;20741;-68
2021/12/08 08:40:36;;;;;;;;;;;;;;;;;;2207003;59;21820;-68
2021/12/08 08:43:10;;;;;;;;;;;;;;;;;;2205347;67;42318;-68
2021/12/08 08:45:46;;;;;;;;;;;;;;;;;;2207228;59;17058;-68
2021/12/08 08:48:24;;;;;;;;;;;;;;;;;;2206743;59;26238;-68
2021/12/08 08:51:00;;;;;;;;;;;;;;;;;;2211015;53;16321;-69
2021/12/08 08:53:36;;;;;;;;;;;;;;;;;;2208169;59;22083;-68
2021/12/08 08:56:10;;;;;;;;;;;;;;;;;;2210462;59;31905;-69
2021/12/08 08:58:45;;;;;;;;;;;;;;;;;;2210041;59;36272;-68
2021/12/08 09:01:20;;;;;;;;;;;;;;;;;;2209963;59;20383;-68
2021/12/08 09:03:58;;;;;;;;;;;;;;;;;;2210014;59;17037;-68
2021/12/08 09:06:33;;;;;;;;;;;;;;;;;;2210387;59;18377;-69
2021/12/08 09:09:09;;;;;;;;;;;;;;;;;;2210074;59;16315;-68
2021/12/08 09:11:43;;;;;;;;;;;;;;;;;;2211039;59;21069;-69
2021/12/08 09:14:18;;;;;;;;;;;;;;;;;;2210458;67;26314;-68
2021/12/08 09:16:55;;;;;;;;;;;;;;;;;;2210440;63;15002;-69
2021/12/08 09:19:35;;;;;;;;;;;;;;;;;;2208933;59;17162;-68
2021/12/08 09:22:09;;;;;;;;;;;;;;;;;;2210694;59;15472;-69
2021/12/08 09:24:47;;;;;;;;;;;;;;;;;;2210041;59;17050;-69
2021/12/08 09:27:23;;;;;;;;;;;;;;;;;;2209453;59;16597;-68
2021/12/08 09:29:58;;;;;;;;;;;;;;;;;;2210305;59;26917;-69
2021/12/08 09:32:36;;;;;;;;;;;;;;;;;;2209958;59;18007;-69
2021/12/08 09:35:14;;;;;;;;;;;;;;;;;;2208530;59;16906;-69
2021/12/08 09:37:50;;;;;;;;;;;;;;;;;;2211021;59;24595;-69
2021/12/08 09:40:27;;;;;;;;;;;;;;;;;;2210440;59;21181;-68
2021/12/08 09:43:02;;;;;;;;;;;;;;;;;;2210561;67;17192;-68
2021/12/08 09:45:37;;;;;;;;;;;;;;;;;;2209514;67;28108;-69
2021/12/08 09:48:11;;;;;;;;;;;;;;;;;;2211148;59;15654;-69
2021/12/08 09:50:48;;;;;;;;;;;;;;;;;;2210512;59;17047;-69
2021/12/08 09:53:21;;;;;;;;;;;;;;;;;;2209697;59;16798;-68
2021/12/08 09:55:54;;;;;;;;;;;;;;;;;;2210748;59;15500;-70
2021/12/08 09:58:27;;;;;;;;;;;;;;;;;;2210504;59;16406;-70
2021/12/08 10:01:02;;;;;;;;;;;;;;;;;;2208476;59;21031;-68
2021/12/08 10:03:36;;;;;;;;;;;;;;;;;;2208536;59;16291;-68
2021/12/08 10:06:13;;;;;;;;;;;;;;;;;;2210649;59;18172;-68
2021/12/08 10:08:48;;;;;;;;;;;;;;;;;;2209994;59;13989;-69
2021/12/08 10:11:21;;;;;;;;;;;;;;;;;;2208749;59;23445;-69
2021/12/08 10:13:54;;;;;;;;;;;;;;;;;;2210074;59;15588;-68
2021/12/08 10:16:29;;;;;;;;;;;;;;;;;;2210149;59;16136;-69
2021/12/08 10:19:02;;;;;;;;;;;;;;;;;;2209477;59;24493;-68
2021/12/08 10:21:40;;;;;;;;;;;;;;;;;;2210077;59;14932;-69
2021/12/08 10:24:18;;;;;;;;;;;;;;;;;;2210247;59;17290;-69
2021/12/08 10:26:52;;;;;;;;;;;;;;;;;;2211465;59;14346;-69
2021/12/08 10:29:26;;;;;;;;;;;;;;;;;;2209277;59;16993;-69
2021/12/08 10:32:00;;;;;;;;;;;;;;;;;;2209802;59;15303;-69
2021/12/08 10:34:47;;;;;;;;;;;;;;;;;;2209786;59;28139;-68
2021/12/08 10:37:23;;;;;;;;;;;;;;;;;;2208939;67;42052;-69
2021/12/08 10:39:59;;;;;;;;;;;;;;;;;;2208172;59;17974;-69
2021/12/08 10:42:33;;;;;;;;;;;;;;;;;;2209892;59;16028;-69
2021/12/08 10:45:11;;;;;;;;;;;;;;;;;;2208145;67;24646;-69
2021/12/08 10:47:47;;;;;;;;;;;;;;;;;;2210226;63;15688;-68
2021/12/08 10:56:05;;;;;;;;;;;;;;;;;;2209805;67;17019;-68
2021/12/08 10:58:39;;;;;;;;;;;;;;;;;;2210152;59;18712;-68
2021/12/08 11:01:16;;;;;;;;;;;;;;;;;;2208821;59;20615;-68
2021/12/08 11:03:51;;;;;;;;;;;;;;;;;;2210565;67;17106;-68
2021/12/08 11:06:24;;;;;;;;;;;;;;;;;;2209899;63;23312;-68
2021/12/08 11:09:00;;;;;;;;;;;;;;;;;;2209564;59;21182;-68
2021/12/08 11:11:35;;;;;;;;;;;;;;;;;;2208867;59;18340;-68
2021/12/08 11:14:08;;;;;;;;;;;;;;;;;;2209095;59;16766;-68
2021/12/08 11:16:42;;;;;;;;;;;;;;;;;;2209793;59;21390;-69
2021/12/08 11:19:16;;;;;;;;;;;;;;;;;;2208995;59;17939;-69
2021/12/08 11:21:53;;;;;;;;;;;;;;;;;;2210420;59;21643;-69
2021/12/08 11:24:34;;;;;;;;;;;;;;;;;;2209824;59;14781;-69
2021/12/08 11:27:09;;;;;;;;;;;;;;;;;;2209429;59;16375;-68
2021/12/08 11:29:43;;;;;;;;;;;;;;;;;;2209547;59;20794;-68
2021/12/08 11:32:18;;;;;;;;;;;;;;;;;;2209287;59;18566;-68
2021/12/08 11:34:53;;;;;;;;;;;;;;;;;;2209919;67;17049;-68
2021/12/08 11:37:32;;;;;;;;;;;;;;;;;;2208581;63;38776;-69
2021/12/08 11:40:16;;;;;;;;;;;;;;;;;;2209629;59;17326;-68
2021/12/08 11:42:50;;;;;;;;;;;;;;;;;;2209136;59;19620;-68
2021/12/08 11:45:24;;;;;;;;;;;;;;;;;;2208498;67;19155;-67
2021/12/08 11:47:57;;;;;;;;;;;;;;;;;;2209936;59;19171;-67
2021/12/08 11:50:32;;;;;;;;;;;;;;;;;;2208368;59;15238;-67
2021/12/08 11:53:05;;;;;;;;;;;;;;;;;;2208758;67;19023;-67
2021/12/08 11:55:41;;;;;;;;;;;;;;;;;;2210444;67;28137;-67
2021/12/08 11:58:15;;;;;;;;;;;;;;;;;;2209973;59;15446;-67
2021/12/08 12:00:52;;;;;;;;;;;;;;;;;;2209892;59;18713;-68
2021/12/08 12:03:25;;;;;;;;;;;;;;;;;;2209142;59;22012;-68
2021/12/08 12:05:59;;;;;;;;;;;;;;;;;;2210456;59;15496;-68
2021/12/08 12:08:32;;;;;;;;;;;;;;;;;;2210097;59;19155;-68
2021/12/08 12:11:08;;;;;;;;;;;;;;;;;;2209009;63;22744;-68
2021/12/08 12:13:42;;;;;;;;;;;;;;;;;;2210998;59;16420;-68
2021/12/08 12:16:15;;;;;;;;;;;;;;;;;;2210629;67;22720;-68
2021/12/08 12:18:50;;;;;;;;;;;;;;;;;;2210212;59;17312;-68
2021/12/08 12:21:28;;;;;;;;;;;;;;;;;;2209320;59;24388;-68
2021/12/08 12:24:08;;;;;;;;;;;;;;;;;;2210178;59;60876;-68
2021/12/08 12:26:53;;;;;;;;;;;;;;;;;;2210280;67;16025;-68
2021/12/08 12:29:36;;;;;;;;;;;;;;;;;;2207806;59;23316;-69
2021/12/08 12:32:13;;;;;;;;;;;;;;;;;;2209748;59;18602;-69
2021/12/08 12:34:51;;;;;;;;;;;;;;;;;;2209261;59;18948;-69
2021/12/08 12:37:32;;;;;;;;;;;;;;;;;;2208994;59;19017;-69
2021/12/08 12:40:07;;;;;;;;;;;;;;;;;;2210036;59;18083;-69
2021/12/08 12:42:51;;;;;;;;;;;;;;;;;;2209021;59;15949;-69
2021/12/08 12:45:25;;;;;;;;;;;;;;;;;;2208800;59;34230;-69
2021/12/08 12:48:09;;;;;;;;;;;;;;;;;;2210201;59;18311;-70
2021/12/08 12:50:56;;;;;;;;;;;;;;;;;;2208474;59;20165;-70
2021/12/08 12:53:34;;;;;;;;;;;;;;;;;;2207790;59;72927;-71
2021/12/08 12:56:08;;;;;;;;;;;;;;;;;;2209723;59;19794;-72
2021/12/08 12:58:51;;;;;;;;;;;;;;;;;;2209779;67;23356;-72
2021/12/08 13:01:29;;;;;;;;;;;;;;;;;;2208903;59;21871;-72
2021/12/08 13:04:05;;;;;;;;;;;;;;;;;;2210581;59;16540;-73
2021/12/08 13:06:43;;;;;;;;;;;;;;;;;;2210203;59;18197;-72
2021/12/08 13:09:35;;;;;;;;;;;;;;;;;;2210045;59;19943;-72
2021/12/08 13:12:10;;;;;;;;;;;;;;;;;;2210882;59;18329;-72
2021/12/08 13:14:46;;;;;;;;;;;;;;;;;;2210883;63;22301;-72
2021/12/08 13:17:21;;;;;;;;;;;;;;;;;;2210244;63;17961;-72
2021/12/08 13:20:01;;;;;;;;;;;;;;;;;;2210217;59;22266;-72
2021/12/08 13:22:46;;;;;;;;;;;;;;;;;;2209899;59;20404;-72
2021/12/08 13:25:50;;;;;;;;;;;;;;;;;;2209567;59;21328;-72
2021/12/08 13:28:31;;;;;;;;;;;;;;;;;;2210777;59;20713;-72
2021/12/08 13:31:13;;;;;;;;;;;;;;;;;;2210172;59;16665;-72
2021/12/08 13:33:47;;;;;;;;;;;;;;;;;;2209514;67;33420;-72
2021/12/08 13:36:34;;;;;;;;;;;;;;;;;;2210941;59;18745;-72
2021/12/08 13:39:10;;;;;;;;;;;;;;;;;;2209818;59;18627;-73
2021/12/08 13:41:44;;;;;;;;;;;;;;;;;;2211608;63;20647;-72
2021/12/08 13:44:22;;;;;;;;;;;;;;;;;;2211093;67;22027;-72
2021/12/08 13:46:59;;;;;;;;;;;;;;;;;;2210940;59;16533;-72
2021/12/08 13:49:35;;;;;;;;;;;;;;;;;;2209681;59;31764;-72
2021/12/08 13:52:31;;;;;;;;;;;;;;;;;;2209418;59;20879;-72
2021/12/08 13:55:22;;;;;;;;;;;;;;;;;;2208135;59;69888;-71
2021/12/08 13:57:56;;;;;;;;;;;;;;;;;;2210686;67;20536;-70
2021/12/08 14:00:34;;;;;;;;;;;;;;;;;;2210316;59;28405;-71
2021/12/08 14:03:12;;;;;;;;;;;;;;;;;;2210244;59;20040;-71
2021/12/08 14:05:48;;;;;;;;;;;;;;;;;;2210606;67;28261;-71
2021/12/08 14:08:24;;;;;;;;;;;;;;;;;;2210865;63;17952;-71
2021/12/08 14:10:59;;;;;;;;;;;;;;;;;;2210923;67;18760;-70
2021/12/08 14:13:37;;;;;;;;;;;;;;;;;;2209617;59;34373;-70
2021/12/08 14:16:12;;;;;;;;;;;;;;;;;;2209849;59;91781;-69
2021/12/08 14:18:48;;;;;;;;;;;;;;;;;;2209721;59;20053;-69
2021/12/08 14:21:23;;;;;;;;;;;;;;;;;;2205534;59;207601;-69
2021/12/08 14:24:04;;;;;;;;;;;;;;;;;;2207232;59;14919;-69
2021/12/08 14:26:39;;;;;;;;;;;;;;;;;;1994165;64;14382721;-69
2021/12/08 14:29:15;;;;;;;;;;;;;;;;;;2206824;59;23785;-68
2021/12/08 14:31:49;;;;;;;;;;;;;;;;;;2207497;59;15466;-66
2021/12/08 14:34:26;;;;;;;;;;;;;;;;;;2206091;59;20392;-66
2021/12/08 14:37:00;;;;;;;;;;;;;;;;;;2207092;59;16170;-65
2021/12/08 14:39:37;;;;;;;;;;;;;;;;;;2205195;59;27481;-66
2021/12/08 14:42:12;;;;;;;;;;;;;;;;;;2207065;59;16863;-68
2021/12/08 14:44:50;;;;;;;;;;;;;;;;;;2205690;59;16795;-68
2021/12/08 14:47:26;;;;;;;;;;;;;;;;;;2205679;59;17742;-68
2021/12/08 14:50:35;;;;;;;;;;;;;;;;;;2209493;53;14957;-68
2021/12/08 14:53:17;;;;;;;;;;;;;;;;;;2199980;59;26789;-67
2021/12/08 14:55:55;;;;;;;;;;;;;;;;;;2202289;59;23648;-68
2021/12/08 14:58:31;;;;;;;;;;;;;;;;;;2203022;59;21251;-68
2021/12/08 15:01:18;;;;;;;;;;;;;;;;;;;;;
2021/12/08 15:10:11;;;;;;;;;;;;;;;;;;2169024;59;2076663;-69
2021/12/08 15:12:46;;;;;;;;;;;;;;;;;;1438197;63;51855894;-69
2021/12/08 15:15:36;;;;;;;;;;;;;;;;;;2199750;59;25722;-69
2021/12/08 15:18:33;;;;;;;;;;;;;;;;;;2200025;59;19234;-70
2021/12/08 15:25:37;;;;;;;;;;;;;;;;;;2202731;59;1134;-69
2021/12/08 17:55:21;;;;;;;;;;;;;;;;;;2203310;59;1206;-68
2021/12/08 18:01:37;;;;;;;;;;;;;;;;;;2208306;59;1516;-68
2021/12/08 18:10:55;;;;;;;;;;;;;;;;;;2206003;59;1908;-68
2021/12/08 18:56:49;;;;;;;;;;;;;;;;;;2191986;67;1168;-68
2021/12/08 18:59:44;;;;;;;;;;;;;;;;;;2204032;59;1935;-68
2021/12/08 19:05:45;;;;;;;;;;;;;;;;;;2203320;59;1977;-68
2021/12/08 19:08:26;;;;;;;;;;;;;;;;;;2205469;59;1331;-69
2021/12/08 19:14:03;;;;;;;;;;;;;;;;;;2205449;67;2112;-69
2021/12/08 19:16:57;;;;;;;;;;;;;;;;;;2208119;67;1028;-69
2021/12/08 19:19:47;;;;;;;;;;;;;;;;;;2206368;59;1956;-69
2021/12/08 19:22:31;;;;;;;;;;;;;;;;;;2204433;59;1239;-69
2021/12/08 19:25:12;;;;;;;;;;;;;;;;;;2204945;59;2067;-69
2021/12/08 19:27:46;;;;;;;;;;;;;;;;;;2204852;67;1116;-69
2021/12/08 19:30:19;;;;;;;;;;;;;;;;;;2204122;59;1914;-69
2021/12/08 19:33:03;;;;;;;;;;;;;;;;;;2202524;59;1982;-69
2021/12/08 19:35:47;;;;;;;;;;;;;;;;;;2194523;59;2036;-69
2021/12/08 19:38:33;;;;;;;;;;;;;;;;;;2204572;59;2272;-69
2021/12/08 19:41:09;;;;;;;;;;;;;;;;;;2199222;59;1975;-69
2021/12/08 19:44:09;;;;;;;;;;;;;;;;;;2205027;59;1966;-69
2021/12/08 19:46:50;;;;;;;;;;;;;;;;;;2208509;67;1071;-69
2021/12/08 19:49:38;;;;;;;;;;;;;;;;;;2207252;59;1837;-69
2021/12/08 19:52:20;;;;;;;;;;;;;;;;;;2210234;67;1086;-69
2021/12/08 19:54:54;;;;;;;;;;;;;;;;;;2207200;59;1889;-69
2021/12/08 19:57:33;;;;;;;;;;;;;;;;;;2203578;59;1310;-69
2021/12/08 20:00:14;;;;;;;;;;;;;;;;;;2205384;59;2014;-70
2021/12/08 20:02:51;;;;;;;;;;;;;;;;;;2207674;59;1886;-69
2021/12/08 20:05:41;;;;;;;;;;;;;;;;;;2206314;59;1998;-70
2021/12/08 20:08:19;;;;;;;;;;;;;;;;;;2207518;59;1367;-70
2021/12/08 20:10:57;;;;;;;;;;;;;;;;;;2204678;59;1285;-70
2021/12/08 20:13:37;;;;;;;;;;;;;;;;;;2207597;59;1351;-69
2021/12/08 20:16:25;;;;;;;;;;;;;;;;;;2207758;67;1271;-69
2021/12/08 20:19:11;;;;;;;;;;;;;;;;;;2207750;59;1933;-69
2021/12/08 20:21:45;;;;;;;;;;;;;;;;;;2209577;59;1705;-70
2021/12/08 20:24:21;;;;;;;;;;;;;;;;;;2207530;59;1337;-69
2021/12/08 20:26:59;;;;;;;;;;;;;;;;;;2205493;59;1285;-70
2021/12/08 20:29:43;;;;;;;;;;;;;;;;;;2208209;59;1558;-69
2021/12/08 20:32:23;;;;;;;;;;;;;;;;;;2208690;59;1639;-69
2021/12/08 20:35:19;;;;;;;;;;;;;;;;;;2205488;67;1185;-69
2021/12/08 20:47:09;;;;;;;;;;;;;;;;;;;;;
2021/12/08 20:50:00;;;;;;;;;;;;;;;;;;2208391;53;3745;-70
2021/12/08 20:52:33;;;;;;;;;;;;;;;;;;2207652;59;1792;-70
2021/12/08 20:55:08;;;;;;;;;;;;;;;;;;2208189;59;1716;-70
2021/12/08 20:57:46;;;;;;;;;;;;;;;;;;2209952;67;1165;-69
2021/12/08 21:00:28;;;;;;;;;;;;;;;;;;2208874;59;1996;-69
2021/12/08 21:03:02;;;;;;;;;;;;;;;;;;2205252;59;1141;-69
2021/12/08 21:05:36;;;;;;;;;;;;;;;;;;2206539;67;1134;-69
2021/12/08 21:08:09;;;;;;;;;;;;;;;;;;2206501;59;1248;-69
2021/12/08 21:10:42;;;;;;;;;;;;;;;;;;2206562;59;1173;-68
2021/12/08 21:13:19;;;;;;;;;;;;;;;;;;2204481;59;1618;-69
2021/12/08 21:15:53;;;;;;;;;;;;;;;;;;2204769;67;1070;-68
2021/12/08 21:18:29;;;;;;;;;;;;;;;;;;2205774;59;1346;-68
2021/12/08 21:21:02;;;;;;;;;;;;;;;;;;2205285;59;1996;-68
2021/12/08 21:23:35;;;;;;;;;;;;;;;;;;2205989;59;1295;-68
2021/12/08 21:26:08;;;;;;;;;;;;;;;;;;2202975;59;1746;-68
2021/12/08 21:28:44;;;;;;;;;;;;;;;;;;2207997;59;1029;-68
2021/12/08 21:31:18;;;;;;;;;;;;;;;;;;2205805;59;1481;-68
2021/12/08 21:33:54;;;;;;;;;;;;;;;;;;2206809;59;1222;-68
2021/12/08 21:36:29;;;;;;;;;;;;;;;;;;2206630;59;1335;-68
2021/12/08 21:39:02;;;;;;;;;;;;;;;;;;2207055;67;1098;-68
2021/12/08 21:41:36;;;;;;;;;;;;;;;;;;2206941;67;1935;-68
2021/12/08 21:44:13;;;;;;;;;;;;;;;;;;2206952;67;1142;-68
2021/12/08 21:46:47;;;;;;;;;;;;;;;;;;2205581;67;1206;-68
2021/12/08 21:49:20;;;;;;;;;;;;;;;;;;2204741;67;1185;-69
2021/12/08 21:51:54;;;;;;;;;;;;;;;;;;2207044;59;1240;-69
2021/12/08 21:54:28;;;;;;;;;;;;;;;;;;2207033;67;1142;-69
2021/12/08 21:57:01;;;;;;;;;;;;;;;;;;2207127;67;1209;-69
2021/12/08 21:59:37;;;;;;;;;;;;;;;;;;2206885;59;1867;-68
2021/12/08 22:02:11;;;;;;;;;;;;;;;;;;2208419;59;1288;-69
2021/12/08 22:04:45;;;;;;;;;;;;;;;;;;2207601;67;1272;-68
2021/12/08 22:07:18;;;;;;;;;;;;;;;;;;2207073;59;1309;-69
2021/12/08 22:09:51;;;;;;;;;;;;;;;;;;2205133;59;1303;-69
2021/12/08 22:12:24;;;;;;;;;;;;;;;;;;2206222;59;1625;-69
2021/12/08 22:15:00;;;;;;;;;;;;;;;;;;2207259;59;1844;-68
2021/12/08 22:17:33;;;;;;;;;;;;;;;;;;2208237;59;1305;-69
2021/12/08 22:20:07;;;;;;;;;;;;;;;;;;2207362;59;1934;-68
2021/12/08 22:22:41;;;;;;;;;;;;;;;;;;2206855;59;1334;-68
2021/12/08 22:25:14;;;;;;;;;;;;;;;;;;2206783;59;1167;-68
2021/12/08 22:27:48;;;;;;;;;;;;;;;;;;2207333;67;1297;-68
2021/12/08 22:30:24;;;;;;;;;;;;;;;;;;2206382;59;1510;-67
2021/12/08 22:32:57;;;;;;;;;;;;;;;;;;2207355;59;1226;-68
2021/12/08 22:35:30;;;;;;;;;;;;;;;;;;2207336;67;1233;-68
2021/12/08 22:38:03;;;;;;;;;;;;;;;;;;2206721;67;1238;-68
2021/12/08 22:40:37;;;;;;;;;;;;;;;;;;2207419;59;1937;-68
2021/12/08 22:43:10;;;;;;;;;;;;;;;;;;2208496;67;1420;-68
2021/12/08 22:45:46;;;;;;;;;;;;;;;;;;2206953;67;1315;-67
2021/12/08 22:48:19;;;;;;;;;;;;;;;;;;2206780;59;1181;-68
2021/12/08 22:50:53;;;;;;;;;;;;;;;;;;2206128;59;1669;-68
2021/12/08 22:53:26;;;;;;;;;;;;;;;;;;2206864;59;1476;-67
2021/12/08 22:55:59;;;;;;;;;;;;;;;;;;2205733;59;1471;-68
2021/12/08 22:58:32;;;;;;;;;;;;;;;;;;2205354;59;1743;-67
2021/12/08 23:01:09;;;;;;;;;;;;;;;;;;2206011;59;2677;-67
2021/12/08 23:03:43;;;;;;;;;;;;;;;;;;2207223;59;2788;-69
2021/12/08 23:06:17;;;;;;;;;;;;;;;;;;2206918;67;1252;-68
2021/12/08 23:08:50;;;;;;;;;;;;;;;;;;2208160;59;1272;-68
2021/12/08 23:11:28;;;;;;;;;;;;;;;;;;2207136;59;1399;-68
2021/12/08 23:14:07;;;;;;;;;;;;;;;;;;2207289;67;1245;-68
2021/12/08 23:16:42;;;;;;;;;;;;;;;;;;2207492;59;1349;-68
2021/12/08 23:19:21;;;;;;;;;;;;;;;;;;2207815;59;1401;-68
2021/12/08 23:21:54;;;;;;;;;;;;;;;;;;2208129;59;1937;-67
2021/12/08 23:24:28;;;;;;;;;;;;;;;;;;2206524;59;1338;-68
2021/12/08 23:27:02;;;;;;;;;;;;;;;;;;2206041;59;1230;-68
2021/12/08 23:29:35;;;;;;;;;;;;;;;;;;2205974;59;1267;-68
2021/12/08 23:32:11;;;;;;;;;;;;;;;;;;2207207;59;1238;-67
2021/12/08 23:34:51;;;;;;;;;;;;;;;;;;2207873;67;1209;-67
2021/12/08 23:37:43;;;;;;;;;;;;;;;;;;2206777;59;1265;-68
2021/12/08 23:40:17;;;;;;;;;;;;;;;;;;2206596;67;1939;-68
2021/12/08 23:42:50;;;;;;;;;;;;;;;;;;2207870;67;1178;-67
2021/12/08 23:45:26;;;;;;;;;;;;;;;;;;2206208;67;1158;-67
2021/12/08 23:48:02;;;;;;;;;;;;;;;;;;2207055;59;1225;-68
2021/12/08 23:50:36;;;;;;;;;;;;;;;;;;2207535;59;1217;-68
2021/12/08 23:53:09;;;;;;;;;;;;;;;;;;2206801;59;1296;-68
2021/12/08 23:55:46;;;;;;;;;;;;;;;;;;2207047;59;1628;-68
2021/12/08 23:58:24;;;;;;;;;;;;;;;;;;2206218;59;1309;-68
